Time;durP1;ratioP1;P1;durP2;ratioP2;P2;SDS_P1;SDS_P2;PMS_P1;PMS_P2;Temp;Humidity;BMP_temperature;BMP_pressure;BME280_temperature;BME280_humidity;BME280_pressure;Samples;Min_cycle;Max_cycle;Signal;HPM_P1;HPM_P2
2022/12/07 00:00:17;;;;;;;19.40;7.63;;;1.80;76.50;;;;;;4158600;28;20037;-82
2022/12/07 00:02:38;;;;;;;16.70;8.50;;;1.80;76.60;;;;;;4156857;28;20112;-83
2022/12/07 00:04:58;;;;;;;21.00;9.55;;;1.80;76.50;;;;;;4157826;28;20057;-82
2022/12/07 00:07:19;;;;;;;17.30;8.18;;;1.80;76.60;;;;;;4157461;28;20035;-82
2022/12/07 00:09:41;;;;;;;19.48;8.30;;;1.80;76.60;;;;;;4155570;28;20091;-82
2022/12/07 00:12:02;;;;;;;17.83;8.75;;;1.80;76.70;;;;;;4151416;28;20037;-82
2022/12/07 00:14:06;;;;;;;19.85;8.38;;;1.80;76.70;;;;;;4156394;28;20037;-82
2022/12/07 00:16:09;;;;;;;19.05;8.55;;;1.80;76.70;;;;;;4137302;28;20015;-81
2022/12/07 00:18:30;;;;;;;18.23;7.63;;;1.70;76.60;;;;;;4152936;28;20129;-82
2022/12/07 00:20:51;;;;;;;20.35;7.60;;;1.70;76.60;;;;;;4140661;28;20029;-81
2022/12/07 00:23:11;;;;;;;16.35;8.13;;;1.70;76.60;;;;;;4151627;28;20045;-82
2022/12/07 00:25:32;;;;;;;17.52;7.60;;;1.70;76.60;;;;;;4142350;28;20503;-82
2022/12/07 00:27:56;;;;;;;14.13;7.32;;;1.70;76.50;;;;;;4156513;28;20033;-82
2022/12/07 00:30:16;;;;;;;17.27;7.45;;;1.70;76.50;;;;;;4156105;28;20041;-81
2022/12/07 00:32:37;;;;;;;14.77;7.00;;;1.70;76.60;;;;;;4147758;28;20100;-82
2022/12/07 00:34:57;;;;;;;18.65;7.25;;;1.70;76.60;;;;;;4145175;28;20076;-82
2022/12/07 00:37:18;;;;;;;13.35;6.80;;;1.60;76.40;;;;;;4155463;28;20034;-82
2022/12/07 00:39:39;;;;;;;12.38;6.75;;;1.60;76.40;;;;;;4143757;28;20030;-82
2022/12/07 00:41:59;;;;;;;14.13;6.75;;;1.60;76.40;;;;;;4144337;28;20136;-82
2022/12/07 00:44:09;;;;;;;14.35;6.70;;;1.60;76.30;;;;;;4154669;28;20116;-82
2022/12/07 00:46:30;;;;;;;15.43;7.20;;;1.60;76.10;;;;;;4155126;28;20045;-81
2022/12/07 00:48:51;;;;;;;15.75;7.60;;;1.50;75.90;;;;;;4140865;28;20037;-82
2022/12/07 00:51:14;;;;;;;15.98;8.45;;;1.50;75.80;;;;;;4155760;28;20029;-82
2022/12/07 00:53:36;;;;;;;13.32;7.97;;;1.50;75.90;;;;;;4153427;28;20037;-82
2022/12/07 00:55:57;;;;;;;14.65;7.75;;;1.40;75.90;;;;;;4141181;28;20038;-82
2022/12/07 00:58:18;;;;;;;15.25;7.88;;;1.40;76.00;;;;;;4156694;28;20038;-82
2022/12/07 01:00:40;;;;;;;15.90;8.13;;;1.30;76.10;;;;;;4157747;28;20450;-83
2022/12/07 01:03:01;;;;;;;13.18;7.38;;;1.30;76.20;;;;;;4158049;28;20063;-82
2022/12/07 01:05:21;;;;;;;17.90;8.38;;;1.30;76.40;;;;;;4144395;28;20044;-82
2022/12/07 01:07:42;;;;;;;16.27;7.38;;;1.30;76.50;;;;;;4142976;28;20078;-82
2022/12/07 01:10:03;;;;;;;14.85;7.38;;;1.30;77.30;;;;;;4145964;28;20030;-82
2022/12/07 01:12:24;;;;;;;17.33;8.35;;;1.20;76.60;;;;;;4160070;28;20044;-81
2022/12/07 01:14:44;;;;;;;14.90;7.13;;;1.20;76.80;;;;;;4155315;28;20029;-82
2022/12/07 01:17:05;;;;;;;14.10;7.28;;;1.30;76.90;;;;;;4156953;28;20049;-82
2022/12/07 01:19:26;;;;;;;13.30;7.32;;;1.20;77.10;;;;;;4157980;28;20032;-82
2022/12/07 01:21:46;;;;;;;14.85;8.30;;;1.20;77.20;;;;;;4157860;28;20040;-83
2022/12/07 01:24:10;;;;;;;15.27;7.68;;;1.20;77.40;;;;;;4154101;28;20022;-83
2022/12/07 01:26:31;;;;;;;16.48;8.43;;;1.20;78.30;;;;;;4162714;28;20079;-82
2022/12/07 01:28:54;;;;;;;15.75;8.38;;;1.20;77.70;;;;;;4150220;28;20065;-83
2022/12/07 01:31:20;;;;;;;15.68;7.65;;;1.20;77.80;;;;;;4158382;28;20025;-82
2022/12/07 01:33:43;;;;;;;15.00;7.72;;;1.20;77.80;;;;;;4142565;28;20077;-82
2022/12/07 01:35:43;;;;;;;15.95;6.93;;;1.20;78.00;;;;;;4142585;28;20049;-82
2022/12/07 01:37:44;;;;;;;14.73;7.20;;;1.20;78.00;;;;;;4155960;28;20030;-82
2022/12/07 01:39:48;;;;;;;13.20;7.10;;;1.20;78.10;;;;;;4154345;28;20065;-82
2022/12/07 01:41:49;;;;;;;14.90;7.85;;;1.20;78.00;;;;;;4163111;28;20045;-82
2022/12/07 01:44:26;;;;;;;13.32;7.13;;;1.20;78.10;;;;;;4162587;28;20029;-82
2022/12/07 01:46:51;;;;;;;16.33;7.20;;;1.20;78.10;;;;;;4158568;28;20172;-82
2022/12/07 01:49:18;;;;;;;13.77;7.35;;;1.20;78.10;;;;;;4141659;28;20113;-82
2022/12/07 01:51:24;;;;;;;14.38;7.50;;;1.20;78.10;;;;;;4130571;28;20046;-83
2022/12/07 01:53:45;;;;;;;12.95;7.03;;;1.10;78.00;;;;;;4143331;28;20058;-82
2022/12/07 01:55:49;;;;;;;14.05;7.38;;;1.10;78.00;;;;;;4146986;28;20030;-82
2022/12/07 01:58:11;;;;;;;15.88;7.25;;;1.10;78.00;;;;;;4155229;28;20076;-82
2022/12/07 02:00:31;;;;;;;15.75;8.20;;;1.10;78.00;;;;;;4150037;28;20116;-84
2022/12/07 02:02:59;;;;;;;16.33;7.85;;;1.10;77.80;;;;;;4161651;28;20072;-82
2022/12/07 02:05:19;;;;;;;12.68;6.72;;;1.10;77.90;;;;;;4160712;28;20068;-83
2022/12/07 02:07:40;;;;;;;14.48;7.65;;;1.10;77.80;;;;;;4147938;28;20116;-82
2022/12/07 02:10:23;;;;;;;14.50;7.30;;;1.10;77.80;;;;;;4161853;28;20118;-83
2022/12/07 02:12:47;;;;;;;13.95;7.43;;;1.00;77.80;;;;;;4146039;28;20058;-83
2022/12/07 02:15:08;;;;;;;13.32;7.07;;;1.00;77.80;;;;;;4154964;28;20057;-84
2022/12/07 02:17:37;;;;;;;13.93;7.32;;;1.00;77.90;;;;;;4163902;28;20123;-83
2022/12/07 02:19:57;;;;;;;12.93;6.70;;;1.00;77.90;;;;;;4156947;28;20040;-83
2022/12/07 02:22:42;;;;;;;12.93;6.63;;;0.90;77.80;;;;;;4162018;28;20037;-83
2022/12/07 02:25:20;;;;;;;13.98;7.50;;;0.90;77.90;;;;;;4155747;28;20025;-83
2022/12/07 02:27:50;;;;;;;13.02;7.05;;;0.90;77.70;;;;;;4144470;28;20030;-83
2022/12/07 02:29:53;;;;;;;13.40;7.30;;;0.90;77.60;;;;;;4155977;28;20037;-83
2022/12/07 02:32:03;;;;;;;15.85;7.63;;;0.90;77.70;;;;;;4162754;28;20044;-83
2022/12/07 02:34:15;;;;;;;17.33;8.00;;;0.90;77.70;;;;;;4145214;28;20100;-83
2022/12/07 02:36:23;;;;;;;15.45;7.90;;;0.80;77.70;;;;;;4158488;28;20036;-83
2022/12/07 02:38:40;;;;;;;15.23;7.50;;;0.80;77.70;;;;;;4154508;28;20024;-82
2022/12/07 02:41:03;;;;;;;13.77;7.25;;;0.80;77.70;;;;;;4157040;28;20033;-82
2022/12/07 02:43:27;;;;;;;13.32;7.22;;;0.70;77.60;;;;;;4126733;28;20027;-82
2022/12/07 02:45:49;;;;;;;14.25;7.55;;;0.70;77.60;;;;;;4157472;28;20034;-83
2022/12/07 02:48:13;;;;;;;16.88;8.18;;;0.70;77.50;;;;;;4158036;28;20029;-82
2022/12/07 02:50:19;;;;;;;16.45;8.13;;;0.60;77.30;;;;;;4129093;28;20038;-83
2022/12/07 02:52:40;;;;;;;16.10;7.53;;;0.60;77.30;;;;;;4159762;28;20037;-83
2022/12/07 02:55:01;;;;;;;15.13;8.25;;;0.60;77.30;;;;;;4160675;28;20116;-82
2022/12/07 02:58:00;;;;;;;16.40;8.82;;;0.60;77.30;;;;;;4159031;28;20075;-81
2022/12/07 03:00:21;;;;;;;14.65;8.00;;;0.60;77.40;;;;;;4066486;29;20048;-83
2022/12/07 03:02:56;;;;;;;15.95;8.32;;;0.50;77.30;;;;;;4150805;28;20067;-83
2022/12/07 03:05:39;;;;;;;18.08;8.48;;;0.50;77.40;;;;;;4159414;28;20040;-83
2022/12/07 03:07:51;;;;;;;17.85;9.50;;;0.50;77.40;;;;;;4160230;28;20061;-83
2022/12/07 03:10:08;;;;;;;16.63;8.53;;;0.50;77.50;;;;;;4158259;28;20030;-82
2022/12/07 03:12:39;;;;;;;17.00;9.10;;;0.50;77.50;;;;;;4156991;28;20299;-82
2022/12/07 03:15:06;;;;;;;19.85;8.52;;;0.40;77.50;;;;;;4159919;28;20499;-82
2022/12/07 03:17:32;;;;;;;16.58;7.90;;;0.40;77.50;;;;;;4161648;28;20031;-83
2022/12/07 03:19:57;;;;;;;16.58;8.88;;;0.40;77.50;;;;;;4146043;28;20038;-83
2022/12/07 03:22:20;;;;;;;16.00;8.63;;;0.40;77.50;;;;;;4163894;28;20040;-83
2022/12/07 03:24:46;;;;;;;18.63;8.48;;;0.40;77.50;;;;;;4160347;28;20071;-82
2022/12/07 03:27:13;;;;;;;17.05;8.50;;;0.30;77.60;;;;;;4164552;28;20025;-83
2022/12/07 03:29:49;;;;;;;16.73;8.95;;;0.30;77.60;;;;;;4163726;28;20041;-82
2022/12/07 03:32:24;;;;;;;16.58;8.05;;;0.30;77.70;;;;;;4157612;28;20065;-82
2022/12/07 03:34:50;;;;;;;15.82;7.93;;;0.30;77.70;;;;;;4142983;28;20031;-82
2022/12/07 03:37:47;;;;;;;17.55;8.07;;;0.30;77.70;;;;;;4151857;28;20079;-82
2022/12/07 03:40:13;;;;;;;17.98;8.60;;;0.30;77.90;;;;;;4127984;28;20049;-82
2022/12/07 03:42:34;;;;;;;15.75;8.48;;;0.20;77.80;;;;;;4149973;28;20034;-82
2022/12/07 03:44:55;;;;;;;15.02;7.90;;;0.20;77.70;;;;;;4146237;28;20044;-81
2022/12/07 03:47:26;;;;;;;19.42;8.93;;;0.20;77.80;;;;;;4164189;28;20042;-82
2022/12/07 03:50:09;;;;;;;15.68;7.22;;;0.20;77.80;;;;;;4159328;28;20092;-82
2022/12/07 03:52:28;;;;;;;14.80;7.93;;;0.20;77.90;;;;;;4144884;28;20040;-82
2022/12/07 03:54:51;;;;;;;17.60;7.78;;;0.20;77.90;;;;;;4163975;28;20179;-82
2022/12/07 03:57:13;;;;;;;16.65;8.02;;;0.20;78.00;;;;;;4151396;28;20031;-81
2022/12/07 03:59:34;;;;;;;18.38;8.57;;;0.10;78.00;;;;;;4159761;28;20073;-82
2022/12/07 04:01:56;;;;;;;14.95;6.82;;;0.10;78.00;;;;;;4159833;28;20036;-82
2022/12/07 04:04:17;;;;;;;17.95;7.32;;;0.10;78.00;;;;;;4159398;28;20117;-82
2022/12/07 04:06:38;;;;;;;16.20;7.40;;;0.10;78.10;;;;;;4162213;28;20033;-82
2022/12/07 04:08:58;;;;;;;15.15;7.82;;;0.10;78.00;;;;;;4162416;28;20025;-81
2022/12/07 04:11:19;;;;;;;15.93;7.15;;;0.00;78.00;;;;;;4148270;28;20046;-82
2022/12/07 04:15:59;;;;;;;12.95;7.07;;;0.00;78.00;;;;;;4158641;28;20040;-81
2022/12/07 04:18:20;;;;;;;12.93;6.43;;;0.00;78.00;;;;;;4157407;28;20049;-81
2022/12/07 04:20:41;;;;;;;14.15;7.35;;;0.00;78.00;;;;;;4163009;28;20029;-82
2022/12/07 04:23:01;;;;;;;14.55;7.20;;;0.00;78.10;;;;;;4156844;28;20130;-82
2022/12/07 04:25:22;;;;;;;14.73;7.40;;;0.00;78.00;;;;;;4163047;28;20116;-82
2022/12/07 04:27:42;;;;;;;12.98;6.60;;;-0.10;78.00;;;;;;4156876;28;20042;-82
2022/12/07 04:30:04;;;;;;;13.55;6.75;;;0.00;78.00;;;;;;4144000;28;20042;-82
2022/12/07 04:32:25;;;;;;;13.35;6.63;;;-0.10;78.00;;;;;;4157395;28;20037;-82
2022/12/07 04:34:45;;;;;;;13.25;6.60;;;-0.10;78.00;;;;;;4172445;28;20167;-80
2022/12/07 04:37:06;;;;;;;13.40;6.90;;;-0.10;78.00;;;;;;4150175;28;20017;-82
2022/12/07 04:39:31;;;;;;;13.50;6.20;;;-0.10;78.10;;;;;;4148234;28;20040;-82
2022/12/07 04:41:36;;;;;;;14.43;7.10;;;-0.10;78.00;;;;;;4156049;28;20030;-81
2022/12/07 04:44:00;;;;;;;13.07;6.72;;;-0.10;78.00;;;;;;4158430;28;20032;-82
2022/12/07 04:46:21;;;;;;;17.15;7.65;;;-0.10;78.00;;;;;;4158455;28;20043;-81
2022/12/07 04:48:41;;;;;;;14.25;7.32;;;-0.10;78.00;;;;;;4160675;28;20141;-82
2022/12/07 04:51:03;;;;;;;15.60;7.18;;;-0.10;78.00;;;;;;4158799;28;20068;-82
2022/12/07 04:53:24;;;;;;;15.63;6.68;;;-0.10;78.00;;;;;;4158488;28;20034;-81
2022/12/07 04:55:24;;;;;;;16.17;7.15;;;-0.20;78.00;;;;;;4142041;28;20092;-82
2022/12/07 04:57:45;;;;;;;14.65;7.28;;;-0.20;77.90;;;;;;4157293;28;20061;-81
2022/12/07 05:00:06;;;;;;;15.82;6.95;;;-0.20;78.00;;;;;;4159318;28;20037;-82
2022/12/07 05:02:09;;;;;;;13.00;6.85;;;-0.20;78.00;;;;;;4145018;28;20080;-81
2022/12/07 05:04:30;;;;;;;12.60;6.60;;;-0.20;78.00;;;;;;4166556;28;20025;-82
2022/12/07 05:06:51;;;;;;;12.93;5.75;;;-0.30;77.90;;;;;;4163941;28;20038;-81
2022/12/07 05:09:11;;;;;;;11.07;5.68;;;-0.30;77.90;;;;;;4159731;28;20033;-82
2022/12/07 05:11:38;;;;;;;13.65;6.45;;;-0.30;78.00;;;;;;4164034;28;20061;-81
2022/12/07 05:13:59;;;;;;;11.98;5.35;;;-0.30;78.00;;;;;;4160040;28;20454;-81
2022/12/07 05:16:19;;;;;;;10.20;5.13;;;-0.30;78.10;;;;;;4162301;28;20040;-82
2022/12/07 05:18:40;;;;;;;10.35;4.50;;;-0.30;78.40;;;;;;4161302;28;20044;-81
2022/12/07 05:21:00;;;;;;;13.23;5.03;;;-0.30;79.00;;;;;;4158157;28;20061;-81
2022/12/07 05:23:21;;;;;;;11.35;4.72;;;-0.20;79.40;;;;;;4161682;28;20041;-82
2022/12/07 05:25:41;;;;;;;10.65;4.57;;;-0.20;79.80;;;;;;4161315;28;20037;-82
2022/12/07 05:28:03;;;;;;;14.82;4.88;;;-0.10;80.00;;;;;;4162621;28;20054;-81
2022/12/07 05:30:24;;;;;;;14.43;5.05;;;-0.10;80.00;;;;;;4161127;28;20045;-81
2022/12/07 05:32:45;;;;;;;10.88;4.80;;;-0.10;80.00;;;;;;4158418;28;20132;-82
2022/12/07 05:35:06;;;;;;;14.85;5.05;;;0.00;80.20;;;;;;4156966;28;20060;-82
2022/12/07 05:37:26;;;;;;;8.68;4.55;;;0.00;80.30;;;;;;4159046;28;20034;-81
2022/12/07 05:39:47;;;;;;;10.50;4.82;;;0.00;80.20;;;;;;4162916;28;20033;-81
2022/12/07 05:42:12;;;;;;;12.63;4.55;;;0.10;80.20;;;;;;4162084;28;20046;-81
2022/12/07 05:44:33;;;;;;;11.57;4.75;;;0.10;80.20;;;;;;4147097;28;20030;-82
2022/12/07 05:46:54;;;;;;;10.95;5.00;;;0.10;80.10;;;;;;4161340;28;20044;-82
2022/12/07 05:49:14;;;;;;;12.35;4.25;;;0.20;80.00;;;;;;4160855;28;20071;-81
2022/12/07 05:51:35;;;;;;;16.58;4.93;;;0.20;80.00;;;;;;4164948;28;20059;-81
2022/12/07 05:53:55;;;;;;;11.88;4.63;;;0.20;79.90;;;;;;4154142;28;20045;-81
2022/12/07 05:56:16;;;;;;;12.88;3.92;;;0.20;79.80;;;;;;4162904;28;20072;-81
2022/12/07 06:01:16;;;;;;;20.17;10.57;;;0.20;79.90;;;;;;4161395;28;20034;-83
2022/12/07 06:03:36;;;;;;;31.48;11.65;;;0.30;80.50;;;;;;4163898;28;20116;-81
2022/12/07 06:05:57;;;;;;;50.50;12.65;;;0.30;79.80;;;;;;4161913;28;20056;-81
2022/12/07 06:08:17;;;;;;;31.05;9.93;;;0.30;79.70;;;;;;4161240;28;20037;-80
2022/12/07 06:10:38;;;;;;;11.25;4.55;;;0.30;79.60;;;;;;4155168;28;20496;-80
2022/12/07 06:12:59;;;;;;;10.05;3.95;;;0.30;79.50;;;;;;4165604;28;20044;-81
2022/12/07 06:15:19;;;;;;;10.27;4.13;;;0.30;79.50;;;;;;4161794;28;20095;-80
2022/12/07 06:17:39;;;;;;;15.18;3.53;;;0.30;79.40;;;;;;4163774;28;20056;-81
2022/12/07 06:19:58;;;;;;;8.05;3.53;;;0.30;79.40;;;;;;4168052;28;20041;-81
2022/12/07 06:22:17;;;;;;;13.85;3.50;;;0.30;79.30;;;;;;4162434;28;20129;-81
2022/12/07 06:24:38;;;;;;;11.27;3.42;;;0.30;79.30;;;;;;4160992;28;20068;-81
2022/12/07 06:26:58;;;;;;;14.20;4.00;;;0.30;79.40;;;;;;4164878;28;20098;-82
2022/12/07 06:29:18;;;;;;;9.23;2.90;;;0.30;79.40;;;;;;4148796;28;20048;-82
2022/12/07 06:31:38;;;;;;;19.60;3.45;;;0.30;79.50;;;;;;4163037;28;20071;-82
2022/12/07 06:34:02;;;;;;;9.85;3.33;;;0.30;79.60;;;;;;4148476;28;20040;-81
2022/12/07 06:36:21;;;;;;;15.35;3.10;;;0.30;79.60;;;;;;4164299;28;20112;-82
2022/12/07 06:38:40;;;;;;;12.32;2.80;;;0.30;79.60;;;;;;4162684;28;20163;-82
2022/12/07 06:40:59;;;;;;;7.45;2.85;;;0.30;79.50;;;;;;4147073;28;20045;-81
2022/12/07 06:43:19;;;;;;;11.65;2.95;;;0.30;79.50;;;;;;4161348;28;20083;-81
2022/12/07 06:45:38;;;;;;;11.00;3.20;;;0.30;79.50;;;;;;4163254;28;20042;-82
2022/12/07 06:47:57;;;;;;;14.50;3.22;;;0.50;79.60;;;;;;4165589;28;20044;-82
2022/12/07 06:50:16;;;;;;;8.73;2.92;;;0.40;79.50;;;;;;4164662;28;20088;-82
2022/12/07 06:52:35;;;;;;;8.57;2.53;;;0.40;79.40;;;;;;4149579;28;20104;-82
2022/12/07 06:54:54;;;;;;;8.77;2.63;;;0.40;79.40;;;;;;4162947;28;20691;-82
2022/12/07 06:57:13;;;;;;;11.82;2.88;;;0.40;79.30;;;;;;4147334;28;20056;-82
2022/12/07 06:59:32;;;;;;;10.45;2.67;;;0.40;79.20;;;;;;4162188;28;20036;-82
2022/12/07 07:01:51;;;;;;;14.32;2.40;;;0.40;79.10;;;;;;4147871;28;20041;-82
2022/12/07 07:04:10;;;;;;;10.15;2.35;;;0.40;79.10;;;;;;4160363;28;20040;-82
2022/12/07 07:06:29;;;;;;;12.57;2.40;;;0.40;79.10;;;;;;4161930;28;20056;-82
2022/12/07 07:08:50;;;;;;;9.40;2.28;;;0.40;79.00;;;;;;4162794;28;20044;-82
2022/12/07 07:11:10;;;;;;;13.80;2.10;;;0.40;79.80;;;;;;4160876;28;20514;-82
2022/12/07 07:13:29;;;;;;;8.40;1.98;;;0.40;79.00;;;;;;4146211;28;20543;-82
2022/12/07 07:15:48;;;;;;;14.65;2.17;;;0.40;78.90;;;;;;4174984;28;20052;-82
2022/12/07 07:18:07;;;;;;;10.57;2.40;;;0.40;78.70;;;;;;4163723;28;20569;-82
2022/12/07 07:20:26;;;;;;;6.47;2.05;;;0.50;78.60;;;;;;4143723;28;20045;-82
2022/12/07 07:22:46;;;;;;;8.52;2.25;;;0.50;78.50;;;;;;4164809;28;20167;-83
2022/12/07 07:25:05;;;;;;;9.15;2.30;;;0.50;78.40;;;;;;4160535;28;20056;-82
2022/12/07 07:27:24;;;;;;;14.95;1.85;;;0.50;78.30;;;;;;4164530;28;20079;-83
2022/12/07 07:29:44;;;;;;;10.40;2.10;;;0.40;78.10;;;;;;4161866;28;20040;-82
2022/12/07 07:32:03;;;;;;;16.63;1.85;;;0.50;78.20;;;;;;4148289;28;20045;-82
2022/12/07 07:34:22;;;;;;;8.02;2.00;;;0.40;78.10;;;;;;4160304;28;20080;-83
2022/12/07 07:36:41;;;;;;;20.67;2.22;;;0.40;78.20;;;;;;4163060;28;20055;-82
2022/12/07 07:39:00;;;;;;;8.73;1.85;;;0.50;78.20;;;;;;4158472;28;20048;-82
2022/12/07 07:41:19;;;;;;;16.45;1.77;;;0.50;78.00;;;;;;4147016;28;20048;-82
2022/12/07 07:43:39;;;;;;;9.18;2.03;;;0.50;77.90;;;;;;4156825;28;20044;-82
2022/12/07 07:45:58;;;;;;;13.40;2.10;;;0.50;77.90;;;;;;4160582;28;20049;-83
2022/12/07 07:48:17;;;;;;;12.32;2.15;;;0.50;77.60;;;;;;4162633;28;20048;-82
2022/12/07 07:50:36;;;;;;;9.25;1.90;;;0.50;77.50;;;;;;4149325;28;20040;-83
2022/12/07 07:52:57;;;;;;;7.45;1.67;;;0.50;77.10;;;;;;4163477;28;20067;-83
2022/12/07 07:55:16;;;;;;;7.70;1.70;;;0.50;77.10;;;;;;4148224;28;20032;-82
2022/12/07 07:57:37;;;;;;;7.50;1.73;;;0.50;77.10;;;;;;4159625;28;20402;-82
2022/12/07 07:59:56;;;;;;;7.80;1.25;;;0.50;77.00;;;;;;4161808;28;20045;-83
2022/12/07 08:02:17;;;;;;;9.23;1.23;;;0.50;76.40;;;;;;4159366;28;20049;-83
2022/12/07 08:04:37;;;;;;;5.32;1.15;;;0.50;76.70;;;;;;4151176;28;20044;-83
2022/12/07 08:06:56;;;;;;;7.40;1.25;;;0.50;76.40;;;;;;4147767;28;20627;-83
2022/12/07 08:09:16;;;;;;;14.15;1.50;;;0.60;76.30;;;;;;4157767;28;20095;-83
2022/12/07 08:11:36;;;;;;;5.65;1.25;;;0.60;76.10;;;;;;4162740;28;20045;-83
2022/12/07 08:13:55;;;;;;;5.78;1.20;;;0.60;75.50;;;;;;4160238;28;20068;-82
2022/12/07 08:16:14;;;;;;;9.52;1.52;;;0.60;75.20;;;;;;4158501;28;20495;-82
2022/12/07 08:18:39;;;;;;;7.80;1.50;;;0.70;75.30;;;;;;4147267;28;20033;-83
2022/12/07 08:21:01;;;;;;;5.78;1.00;;;0.70;75.00;;;;;;4157780;28;20057;-83
2022/12/07 08:23:21;;;;;;;11.13;1.35;;;0.70;74.80;;;;;;4158630;28;20059;-82
2022/12/07 08:25:40;;;;;;;5.25;1.00;;;0.70;74.80;;;;;;4160760;28;20036;-83
2022/12/07 08:28:00;;;;;;;7.40;0.95;;;0.70;74.70;;;;;;4145605;28;20133;-82
2022/12/07 08:30:20;;;;;;;7.80;1.63;;;0.70;74.60;;;;;;4155055;28;20048;-82
2022/12/07 08:32:39;;;;;;;9.77;1.35;;;0.70;74.50;;;;;;4160587;28;20099;-84
2022/12/07 08:34:59;;;;;;;4.00;1.05;;;0.80;74.30;;;;;;4155645;28;20033;-84
2022/12/07 08:37:18;;;;;;;9.23;1.00;;;0.80;74.00;;;;;;4158648;28;20045;-83
2022/12/07 08:39:37;;;;;;;5.07;1.38;;;0.80;73.90;;;;;;4157245;28;20028;-84
2022/12/07 08:41:56;;;;;;;14.32;1.67;;;0.80;73.40;;;;;;4158246;28;20048;-83
2022/12/07 08:44:15;;;;;;;6.72;1.45;;;0.80;73.30;;;;;;4159953;28;20514;-83
2022/12/07 08:46:42;;;;;;;5.20;0.98;;;0.80;73.30;;;;;;4163142;28;20032;-83
2022/12/07 08:49:07;;;;;;;8.25;0.88;;;0.80;73.20;;;;;;4159367;28;20040;-83
2022/12/07 08:51:26;;;;;;;10.05;1.35;;;0.80;73.10;;;;;;4157725;28;20083;-83
2022/12/07 08:53:45;;;;;;;4.57;1.15;;;0.80;72.90;;;;;;4160317;28;20040;-83
2022/12/07 08:56:05;;;;;;;10.70;2.50;;;0.80;72.50;;;;;;4146300;28;20041;-83
2022/12/07 08:58:26;;;;;;;6.10;1.88;;;0.80;72.70;;;;;;4141502;28;20037;-83
2022/12/07 09:00:45;;;;;;;10.35;1.50;;;0.80;72.70;;;;;;4158345;28;20048;-84
2022/12/07 09:03:04;;;;;;;7.07;1.52;;;0.80;72.50;;;;;;4158555;28;20075;-83
2022/12/07 09:05:23;;;;;;;4.35;1.10;;;0.80;72.50;;;;;;4159009;28;20040;-84
2022/12/07 09:07:46;;;;;;;10.43;1.38;;;0.80;72.50;;;;;;4157091;28;20069;-83
2022/12/07 09:10:05;;;;;;;11.50;1.75;;;0.80;73.10;;;;;;4145664;28;20093;-82
2022/12/07 09:12:25;;;;;;;11.10;1.48;;;0.80;72.10;;;;;;4164267;28;20091;-84
2022/12/07 09:14:44;;;;;;;6.22;1.88;;;0.80;72.70;;;;;;4161196;28;20044;-82
2022/12/07 09:17:11;;;;;;;8.40;2.10;;;0.80;72.00;;;;;;4161878;28;20149;-83
2022/12/07 09:19:30;;;;;;;14.85;2.45;;;0.90;71.90;;;;;;4148754;28;20093;-83
2022/12/07 09:21:50;;;;;;;4.57;1.10;;;0.90;71.80;;;;;;4156701;28;21264;-83
2022/12/07 09:24:09;;;;;;;4.03;1.20;;;0.80;71.30;;;;;;4158175;28;20366;-83
2022/12/07 09:26:28;;;;;;;4.50;1.02;;;0.80;71.60;;;;;;4158490;28;20079;-83
2022/12/07 09:28:47;;;;;;;5.00;1.15;;;0.90;71.40;;;;;;4145348;28;20113;-83
2022/12/07 09:31:07;;;;;;;8.40;0.82;;;0.90;71.60;;;;;;4149324;28;20032;-84
2022/12/07 09:33:26;;;;;;;6.88;0.70;;;1.00;71.30;;;;;;4156820;28;20419;-84
2022/12/07 09:35:46;;;;;;;3.38;1.10;;;0.90;71.00;;;;;;4158264;28;20108;-84
2022/12/07 09:38:06;;;;;;;3.47;0.88;;;0.90;71.00;;;;;;4158599;28;20040;-83
2022/12/07 09:40:25;;;;;;;3.28;0.75;;;0.90;70.90;;;;;;4161744;28;20068;-83
2022/12/07 09:42:49;;;;;;;5.20;0.95;;;1.00;70.80;;;;;;4150157;28;20128;-84
2022/12/07 09:45:14;;;;;;;2.97;0.70;;;1.00;70.80;;;;;;4162171;28;20032;-84
2022/12/07 09:47:36;;;;;;;3.30;1.02;;;1.00;70.70;;;;;;4158310;28;20061;-84
2022/12/07 09:50:03;;;;;;;6.45;1.92;;;1.00;70.30;;;;;;4148693;28;20105;-84
2022/12/07 09:52:27;;;;;;;11.88;1.98;;;1.00;70.50;;;;;;4161897;28;20074;-84
2022/12/07 09:54:49;;;;;;;7.25;1.45;;;1.10;70.50;;;;;;4162178;28;20037;-85
2022/12/07 09:57:12;;;;;;;11.95;1.73;;;1.10;70.50;;;;;;4163067;28;20048;-84
2022/12/07 09:59:31;;;;;;;10.52;1.17;;;1.10;70.40;;;;;;4159884;28;20064;-84
2022/12/07 10:01:50;;;;;;;4.40;1.13;;;1.20;70.30;;;;;;4164015;28;20047;-83
2022/12/07 10:04:21;;;;;;;8.15;1.33;;;1.20;70.40;;;;;;4164180;28;20514;-84
2022/12/07 10:06:40;;;;;;;3.60;1.05;;;1.20;70.10;;;;;;4161852;28;20445;-85
2022/12/07 10:09:00;;;;;;;6.13;1.23;;;1.20;70.70;;;;;;4145288;28;20045;-83
2022/12/07 10:11:19;;;;;;;2.38;1.00;;;1.20;69.90;;;;;;4147271;28;20132;-84
2022/12/07 10:13:40;;;;;;;3.38;0.80;;;1.20;69.80;;;;;;4160138;28;20045;-83
2022/12/07 10:15:59;;;;;;;9.57;1.92;;;1.30;69.70;;;;;;4164460;28;20040;-84
2022/12/07 10:18:21;;;;;;;5.65;1.08;;;1.20;69.60;;;;;;4151054;28;20061;-86
2022/12/07 10:20:40;;;;;;;7.03;1.40;;;1.30;69.50;;;;;;4150645;28;20040;-82
2022/12/07 10:23:05;;;;;;;7.40;2.53;;;1.30;69.30;;;;;;4160302;28;20420;-84
2022/12/07 10:25:33;;;;;;;21.00;5.50;;;1.30;69.40;;;;;;4160732;28;20041;-83
2022/12/07 10:28:01;;;;;;;9.85;2.35;;;1.30;69.40;;;;;;4159161;28;20589;-85
2022/12/07 10:30:20;;;;;;;7.53;2.47;;;1.30;69.30;;;;;;4173625;28;20160;-85
2022/12/07 10:32:39;;;;;;;5.40;1.67;;;1.30;69.10;;;;;;4143914;28;20041;-83
2022/12/07 10:35:28;;;;;;;5.65;1.70;;;1.40;69.20;;;;;;4160077;28;20044;-84
2022/12/07 10:37:48;;;;;;;7.88;2.20;;;1.40;69.20;;;;;;4160340;28;20171;-84
2022/12/07 10:40:26;;;;;;;9.30;1.73;;;1.40;69.10;;;;;;4143804;28;20045;-84
2022/12/07 10:43:04;;;;;;;8.45;1.10;;;1.40;68.90;;;;;;4160496;28;20048;-84
2022/12/07 10:45:24;;;;;;;9.68;2.35;;;1.50;68.90;;;;;;4154268;28;20064;-84
2022/12/07 10:47:59;;;;;;;7.35;2.13;;;1.40;68.90;;;;;;4143305;28;20060;-84
2022/12/07 10:50:47;;;;;;;8.30;1.63;;;1.50;69.10;;;;;;4163744;28;20522;-84
2022/12/07 10:53:31;;;;;;;8.35;2.10;;;1.40;69.10;;;;;;4164584;28;20044;-84
2022/12/07 10:56:03;;;;;;;12.93;3.42;;;1.40;68.90;;;;;;4165299;28;20040;-84
2022/12/07 10:58:36;;;;;;;11.30;1.38;;;1.40;69.00;;;;;;4164765;28;20088;-85
2022/12/07 11:01:22;;;;;;;3.40;0.82;;;1.50;69.30;;;;;;4163648;28;20036;-85
2022/12/07 11:04:12;;;;;;;7.93;1.30;;;1.50;69.10;;;;;;4147140;28;20121;-83
2022/12/07 11:06:54;;;;;;;3.50;0.95;;;1.50;69.20;;;;;;4166596;28;20052;-84
2022/12/07 11:09:48;;;;;;;6.82;1.00;;;1.50;69.30;;;;;;4161724;28;20040;-84
2022/12/07 11:12:17;;;;;;;8.57;1.15;;;1.50;69.40;;;;;;4160460;28;20040;-85
2022/12/07 11:14:48;;;;;;;2.70;0.75;;;1.60;69.50;;;;;;4148219;28;20072;-85
2022/12/07 11:17:29;;;;;;;5.30;0.77;;;1.50;69.40;;;;;;4144807;28;20033;-84
2022/12/07 11:20:18;;;;;;;3.90;0.65;;;1.50;69.50;;;;;;4162961;28;20064;-84
2022/12/07 11:22:51;;;;;;;3.35;0.52;;;1.50;69.50;;;;;;4155480;28;20100;-84
2022/12/07 11:25:17;;;;;;;4.00;0.70;;;1.50;69.70;;;;;;4165924;28;20064;-83
2022/12/07 11:28:02;;;;;;;6.15;0.50;;;1.50;69.70;;;;;;4162694;28;20176;-84
2022/12/07 11:30:38;;;;;;;8.65;1.42;;;1.50;69.60;;;;;;4152934;28;20311;-84
2022/12/07 11:33:25;;;;;;;1.02;0.38;;;1.60;69.80;;;;;;4159288;28;20033;-85
2022/12/07 11:36:03;;;;;;;3.33;0.63;;;1.40;69.70;;;;;;4166603;28;20040;-83
2022/12/07 11:38:47;;;;;;;2.53;0.57;;;1.40;69.70;;;;;;4166067;28;20095;-83
2022/12/07 11:41:14;;;;;;;3.80;0.50;;;1.40;69.70;;;;;;4164785;28;20505;-84
2022/12/07 11:43:35;;;;;;;2.20;0.38;;;1.40;69.70;;;;;;4155185;28;20085;-85
2022/12/07 11:46:08;;;;;;;3.55;0.40;;;1.40;69.40;;;;;;4168185;28;20091;-85
2022/12/07 11:48:42;;;;;;;6.38;0.57;;;1.40;69.50;;;;;;4153726;28;20514;-84
2022/12/07 11:51:04;;;;;;;2.25;0.38;;;1.50;69.60;;;;;;4160089;28;20040;-85
2022/12/07 11:53:43;;;;;;;2.28;0.50;;;1.40;69.60;;;;;;4166243;28;20530;-84
2022/12/07 11:56:13;;;;;;;2.30;0.52;;;1.30;69.70;;;;;;4155454;28;20063;-83
2022/12/07 11:58:49;;;;;;;4.95;0.70;;;1.30;69.70;;;;;;4148628;28;20037;-84
2022/12/07 12:01:15;;;;;;;2.30;0.77;;;1.30;69.70;;;;;;4147155;28;20033;-83
2022/12/07 12:03:40;;;;;;;3.42;1.60;;;1.30;69.80;;;;;;4161963;28;20132;-84
2022/12/07 12:05:59;;;;;;;5.32;1.33;;;1.30;69.80;;;;;;4160084;28;20039;-85
2022/12/07 12:08:31;;;;;;;3.97;0.82;;;1.30;69.80;;;;;;4161458;28;20109;-85
2022/12/07 12:11:05;;;;;;;3.67;0.68;;;1.30;69.90;;;;;;4157753;28;20049;-84
2022/12/07 12:13:59;;;;;;;2.80;0.95;;;1.30;70.00;;;;;;4160717;28;20406;-84
2022/12/07 12:16:40;;;;;;;3.00;0.88;;;1.30;70.10;;;;;;4149049;28;20045;-85
2022/12/07 12:19:12;;;;;;;5.53;0.90;;;1.30;70.20;;;;;;4158656;28;20242;-85
2022/12/07 12:21:32;;;;;;;1.42;0.90;;;1.30;70.30;;;;;;4161737;28;20084;-85
2022/12/07 12:23:57;;;;;;;5.22;1.10;;;1.30;70.40;;;;;;4163300;28;20064;-86
2022/12/07 12:26:20;;;;;;;4.25;1.95;;;1.20;70.50;;;;;;4161199;28;20095;-84
2022/12/07 12:28:49;;;;;;;4.65;1.13;;;1.30;70.60;;;;;;4168318;28;20060;-84
2022/12/07 12:31:20;;;;;;;2.08;0.70;;;1.30;70.70;;;;;;4161038;28;20063;-84